Heidelberg, Germany

11:45 AM CEST on October 21, 2014 (GMT +0200)
Mannheim Seckenheim | Change Station
CLOSE
Current Station
Personal Weather Station
Location: Mannheim, BW
Elevation: 318 ft
Nearby Weather Stations

Elev 318 ft 49.46 °N, 8.55 °E | Updated 16 seconds ago

Mostly Cloudy
Mostly Cloudy
58.8 °F
Feels Like 58.8 °F
N
4.0
Wind Variable Wind from SW
Gusts 10.0 mph

Today
High -- | Low -- °F
--% Chance of Precip.
Yesterday
High -- | Low -- °F
Precip. -- in
7:55 AM 6:23 PM
Waning Crescent, 6% visible
Pressure 29.89 in
Visibility 6.2 miles
Clouds Scattered Clouds 2100 ft
Mostly Cloudy 3700 ft
Dew Point 55 °F
Humidity 86%
Rainfall 0.00 in
Snow Depth Not available.
UV 1 out of 12
Pollen Not available.
Air Quality Not available.
Flu Activity Not available.
METAR EDFM 210920Z 22008KT 180V250 9999 SCT021 BKN037 14/11 Q1012

More Conditions Fewer Conditions

Pressure 29.89 in
Visibility 6.2 miles
Clouds Scattered Clouds 2100 ft
Mostly Cloudy 3700 ft
Dew Point 55 °F
Humidity 86%
Rainfall 0.00 in
Snow Depth Not available.
UV 1 out of 12
Pollen Not available.
Air Quality Not available.
Flu Activity Not available.
METAR EDFM 210920Z 22008KT 180V250 9999 SCT021 BKN037 14/11 Q1012

More Conditions Fewer Conditions

10-Day Weather Forecast

Almanac

Astronomy

Oct. 21, 2014 Rise Set
Actual Time 7:55 AM CEST 6:23 PM CEST
Civil Twilight 7:22 AM CEST 6:56 PM CEST
Nautical Twilight 6:45 AM CEST 7:33 PM CEST
Astronomical Twilight 6:08 AM CEST 8:10 PM CEST
Moon 5:11 AM CEST 5:19 PM CEST
Length of Visible Light 11h 33m
Length of Day
10h 28m
Tomorrow will be 3m 29s shorter.
Waning Crescent, 6% of the Moon is Illuminated
Today
Waning Crescent
Oct 23
New
Oct 30
First Quarter
Nov 6
Full
Nov 14
Last Quarter

Yesterday's Extremes

Country Highs Country Lows

Community

WunderPhotos

Upload Photos

1,763,619 photos uploaded!

Nearby

Snow Depth

Not available.

Earthquake Activity

City Distance Mag. Time & Date
No recent earthquake activity has been reported nearby.
Minimum magnitude displayed is 2.5.

Coastal Water Temperatures

Place Temperature
No Stations Reporting

Nearby Weather Stations